Flight Track Log - Related Links

Times and Time Zones

All times are in EDT time to prevent confusion due to time zone crossing. See the USC105 flight status page for this flight to view local times or setup timezone preferences in your user account.

Time Position Orientation Groundspeed Altitude Reporting Facility
EDT Latitude Longitude Course Direction KTS km/h feet Rate Location/Type
Thu 23:03:57 41.5358 -81.6761 359° North 113 209 1,600  Level Cleveland Center
Thu 23:04:58 41.5647 -81.7100 319° Northwest 170 315 2,300 836 Climbing Cleveland Center
Thu 23:05:59 41.5892 -81.7547 306° West 149 275 3,300 992 Climbing Cleveland Center
Thu 23:06:59 41.6178 -81.7997 310° West 150 278 4,300 893 Climbing Cleveland Center
Thu 23:08:00 41.6486 -81.8447 313° West 164 304 5,100 843 Climbing Cleveland Center
Thu 23:09:00 41.6878 -81.8900 319° Northwest 184 341 6,000 898 Climbing Cleveland Center
Thu 23:10:07 41.7311 -81.9381 320° Northwest 185 343 7,000 885 Climbing Cleveland Center
Thu 23:11:02 41.7681 -81.9750 323° Northwest 188 348 7,800 574 Climbing Cleveland Center
Thu 23:12:02 41.8156 -82.0208 324° Northwest 211 391 8,100 157 Climbing Cleveland Center
Thu 23:12:57 41.8564 -82.0692 319° Northwest 213 394 8,100 -52 Level Cleveland Center
Thu 23:13:57 41.8975 -82.1231 316° Northwest 208 385 8,000 -50 Descending Cleveland Center
Thu 23:14:58 41.9319 -82.1853 307° West 203 377 8,000  Level Cleveland Center
Thu 23:15:50 41.9711 -82.2281 321° Northwest 207 383 8,000  Level Cleveland Center
Thu 23:17:09 42.0306 -82.2911 322° Northwest 210 389 8,000  Level Cleveland Center
Thu 23:18:10 42.0544 -82.3617 295° West 186 344 8,000  Level Cleveland Center
Thu 23:19:10 42.0639 -82.4264 281° West 182 336 8,000  Level Cleveland Center
Thu 23:20:11 42.0733 -82.4964 280° West 183 340 8,000  Level Cleveland Center
Thu 23:21:12 42.0783 -82.5639 276° West 183 340 8,000  Level Cleveland Center
Thu 23:22:06 42.0856 -82.6283 279° West 185 343 8,000 -157 Level Cleveland Center
Thu 23:23:07 42.0906 -82.6986 275° West 189 349 7,700 -298 Descending Cleveland Center
Thu 23:24:07 42.0911 -82.7714 271° West 194 359 7,400 -595 Descending Cleveland Center
Thu 23:25:08 42.0897 -82.8439 269° West 195 360 6,500 -836 Descending Cleveland Center
Thu 23:26:09 42.0883 -82.9139 268° West 189 349 5,700 -744 Descending Cleveland Center
Thu 23:27:09 42.0847 -82.9894 266° West 198 367 5,000 -347 Descending Cleveland Center
Thu 23:28:10 42.0833 -83.0592 268° West 187 346 5,000  Level Cleveland Center
Thu 23:29:11 42.0861 -83.1264 273° West 180 333 5,000  Level Cleveland Center
Thu 23:30:05 42.0825 -83.1878 265° West 176 327 5,000  Level Cleveland Center
Thu 23:31:06 42.0831 -83.2522 271° West 172 319 5,000  Level Cleveland Center
Thu 23:32:12 42.0836 -83.3222 271° West 165 306 5,000 -331 Level Cleveland Center
Thu 23:33:13 42.0903 -83.3925 277° West 193 357 4,300 -738 Descending Cleveland Center
Thu 23:34:14 42.0947 -83.4656 275° West 201 372 3,500 -694 Descending Cleveland Center
Thu 23:35:14 42.0908 -83.5381 266° West 203 377 2,900 -545 Descending Cleveland Center
Thu 23:36:15 42.0972 -83.6111 277° West 213 394 2,400 -209 Descending Cleveland Center
Thu 23:37:09 42.1161 -83.6792 291° West 206 381 2,500  Climbing Cleveland Center
Thu 23:38:10 42.1436 -83.6694 15° North 107 198 2,400  Descending Cleveland Center
Thu 23:39:11 42.1653 -83.6339 51° Northeast 124 230 2,500 72 Climbing Cleveland Center
Thu 23:39:33 42.1758 -83.6192 46° Northeast 121 224 2,500 -279 Level FAA TRACON SMA TRACON (SMA)
Thu 23:39:54 42.1836 -83.6075 48° Northeast 114 211 2,300 -585 Descending FAA TRACON SMA TRACON (SMA)
Thu 23:40:14 42.1897 -83.5992 45° Northeast 104 193 2,100 -615 Descending FAA TRACON SMA TRACON (SMA)
Thu 23:40:33 42.1956 -83.5900 49° Northeast 104 193 1,900 -600 Descending FAA TRACON SMA TRACON (SMA)
Thu 23:40:54 42.2028 -83.5781 51° Northeast 107 198 1,700 -600 Descending FAA TRACON SMA TRACON (SMA)
Thu 23:41:13 42.2097 -83.5694 43° Northeast 111 206 1,500 -600 Descending FAA TRACON SMA TRACON (SMA)
Thu 23:41:34 42.2161 -83.5611 44° Northeast 101 187 1,300 -600 Descending FAA TRACON SMA TRACON (SMA)
Thu 23:41:53 42.2219 -83.5522 48° Northeast 101 187 1,100 -600 Descending FAA TRACON SMA TRACON (SMA)
Thu 23:42:14 42.2292 -83.5417 47° Northeast 101 187 900 -293 Descending FAA TRACON SMA TRACON (SMA)
Thu 23:42:34 42.2308 -83.5394 45° Northeast 100 185 900  Level FAA TRACON SMA TRACON (SMA)
Thu 23:44:00 42.2333 -83.5167 355° North  Level FlightAware Approximate
Thu 23:51:00 42.2393 -83.5310 355° North  Level Estimated

Login

Don't have an account? Register now (free) for customized features, flight alerts, and more!